sensor_id;sensor_type;location;lat;lon;timestamp;pressure;altitude;pressure_sealevel;temperature;humidity
9525;BME280;15940;48.734;9.112;2022-09-09T00:01:23;96276.19;;;14.90;68.89
9525;BME280;15940;48.734;9.112;2022-09-09T00:03:57;96270.84;;;14.98;68.99
9525;BME280;15940;48.734;9.112;2022-09-09T00:06:30;96266.97;;;15.06;68.88
9525;BME280;15940;48.734;9.112;2022-09-09T00:09:04;96262.69;;;14.98;67.99
9525;BME280;15940;48.734;9.112;2022-09-09T00:11:42;96271.19;;;15.07;68.78
9525;BME280;15940;48.734;9.112;2022-09-09T00:14:21;96252.50;;;15.11;68.88
9525;BME280;15940;48.734;9.112;2022-09-09T00:16:54;96265.09;;;15.14;67.19
9525;BME280;15940;48.734;9.112;2022-09-09T00:19:27;96255.53;;;15.21;67.93
9525;BME280;15940;48.734;9.112;2022-09-09T00:22:10;96256.59;;;15.18;67.14
9525;BME280;15940;48.734;9.112;2022-09-09T00:24:44;96263.00;;;15.21;67.48
9525;BME280;15940;48.734;9.112;2022-09-09T00:27:21;96260.91;;;15.27;67.52
9525;BME280;15940;48.734;9.112;2022-09-09T00:29:54;96261.31;;;15.31;67.65
9525;BME280;15940;48.734;9.112;2022-09-09T00:32:29;96260.06;;;15.32;66.27
9525;BME280;15940;48.734;9.112;2022-09-09T00:35:01;96256.50;;;15.37;67.11
9525;BME280;15940;48.734;9.112;2022-09-09T00:37:29;96252.38;;;15.43;65.92
9525;BME280;15940;48.734;9.112;2022-09-09T00:40:03;96248.91;;;15.43;66.21
9525;BME280;15940;48.734;9.112;2022-09-09T00:42:42;96259.34;;;15.45;65.86
9525;BME280;15940;48.734;9.112;2022-09-09T00:45:37;96253.13;;;15.44;66.00
9525;BME280;15940;48.734;9.112;2022-09-09T00:48:10;96250.63;;;15.46;65.67
9525;BME280;15940;48.734;9.112;2022-09-09T00:50:46;96261.53;;;15.46;65.34
9525;BME280;15940;48.734;9.112;2022-09-09T00:53:27;96261.84;;;15.56;66.49
9525;BME280;15940;48.734;9.112;2022-09-09T00:56:03;96251.56;;;15.62;66.34
9525;BME280;15940;48.734;9.112;2022-09-09T00:58:33;96249.66;;;15.70;66.13
9525;BME280;15940;48.734;9.112;2022-09-09T01:01:05;96267.72;;;15.73;65.91
9525;BME280;15940;48.734;9.112;2022-09-09T01:03:36;96258.56;;;15.70;65.34
9525;BME280;15940;48.734;9.112;2022-09-09T01:06:15;96251.56;;;15.62;65.61
9525;BME280;15940;48.734;9.112;2022-09-09T01:09:22;96254.91;;;15.55;67.45
9525;BME280;15940;48.734;9.112;2022-09-09T01:11:59;96243.25;;;15.54;66.83
9525;BME280;15940;48.734;9.112;2022-09-09T01:14:48;96260.28;;;15.47;67.25
9525;BME280;15940;48.734;9.112;2022-09-09T01:17:23;96261.00;;;15.48;67.84
9525;BME280;15940;48.734;9.112;2022-09-09T01:20:04;96266.25;;;15.46;67.50
9525;BME280;15940;48.734;9.112;2022-09-09T01:22:36;96268.25;;;15.32;66.90
9525;BME280;15940;48.734;9.112;2022-09-09T01:25:30;96269.31;;;15.29;67.94
9525;BME280;15940;48.734;9.112;2022-09-09T01:28:02;96271.50;;;15.30;67.64
9525;BME280;15940;48.734;9.112;2022-09-09T01:30:33;96270.97;;;15.32;66.08
9525;BME280;15940;48.734;9.112;2022-09-09T01:33:02;96277.59;;;15.36;65.97
9525;BME280;15940;48.734;9.112;2022-09-09T01:35:43;96272.22;;;15.44;66.39
9525;BME280;15940;48.734;9.112;2022-09-09T01:38:12;96266.47;;;15.48;65.71
9525;BME280;15940;48.734;9.112;2022-09-09T01:40:40;96258.56;;;15.44;65.84
9525;BME280;15940;48.734;9.112;2022-09-09T01:43:08;96269.19;;;15.48;65.59
9525;BME280;15940;48.734;9.112;2022-09-09T01:45:36;96267.00;;;15.46;66.32
9525;BME280;15940;48.734;9.112;2022-09-09T01:48:04;96256.59;;;15.45;66.43
9525;BME280;15940;48.734;9.112;2022-09-09T01:50:31;96262.69;;;15.37;66.45
9525;BME280;15940;48.734;9.112;2022-09-09T01:52:59;96263.84;;;15.29;67.09
9525;BME280;15940;48.734;9.112;2022-09-09T01:55:31;96265.50;;;15.32;67.62
9525;BME280;15940;48.734;9.112;2022-09-09T01:58:17;96257.03;;;15.35;66.69
9525;BME280;15940;48.734;9.112;2022-09-09T02:00:56;96256.19;;;15.27;66.60
9525;BME280;15940;48.734;9.112;2022-09-09T02:03:28;96255.00;;;15.23;67.76
9525;BME280;15940;48.734;9.112;2022-09-09T02:06:05;96264.13;;;15.25;68.34
9525;BME280;15940;48.734;9.112;2022-09-09T02:08:42;96266.66;;;15.23;68.29
9525;BME280;15940;48.734;9.112;2022-09-09T02:11:15;96264.66;;;15.24;67.57
9525;BME280;15940;48.734;9.112;2022-09-09T02:13:46;96271.81;;;15.27;67.22
9525;BME280;15940;48.734;9.112;2022-09-09T02:16:21;96264.13;;;15.25;67.14
9525;BME280;15940;48.734;9.112;2022-09-09T02:18:53;96258.91;;;15.27;67.12
9525;BME280;15940;48.734;9.112;2022-09-09T02:21:23;96257.94;;;15.25;67.15
9525;BME280;15940;48.734;9.112;2022-09-09T02:23:53;96246.75;;;15.28;67.23
9525;BME280;15940;48.734;9.112;2022-09-09T02:26:22;96263.84;;;15.29;67.16
9525;BME280;15940;48.734;9.112;2022-09-09T02:28:54;96261.41;;;15.25;66.94
9525;BME280;15940;48.734;9.112;2022-09-09T02:31:25;96273.09;;;15.26;67.39
9525;BME280;15940;48.734;9.112;2022-09-09T02:33:55;96280.63;;;15.20;67.97
9525;BME280;15940;48.734;9.112;2022-09-09T02:36:25;96271.59;;;15.11;68.52
9525;BME280;15940;48.734;9.112;2022-09-09T02:38:53;96268.34;;;15.13;68.52
9525;BME280;15940;48.734;9.112;2022-09-09T02:41:26;96267.06;;;15.01;68.00
9525;BME280;15940;48.734;9.112;2022-09-09T02:43:55;96265.28;;;14.90;69.42
9525;BME280;15940;48.734;9.112;2022-09-09T02:46:36;96264.31;;;14.88;68.64
9525;BME280;15940;48.734;9.112;2022-09-09T02:49:11;96260.31;;;14.75;69.49
9525;BME280;15940;48.734;9.112;2022-09-09T02:51:51;96258.53;;;14.78;69.64
9525;BME280;15940;48.734;9.112;2022-09-09T02:54:27;96259.56;;;14.75;70.04
9525;BME280;15940;48.734;9.112;2022-09-09T02:57:01;96255.91;;;14.72;69.99
9525;BME280;15940;48.734;9.112;2022-09-09T02:59:31;96240.09;;;14.71;69.70
9525;BME280;15940;48.734;9.112;2022-09-09T03:01:59;96235.03;;;14.75;69.88
9525;BME280;15940;48.734;9.112;2022-09-09T03:04:26;96244.47;;;14.74;69.69
9525;BME280;15940;48.734;9.112;2022-09-09T03:06:53;96247.84;;;14.80;69.33
9525;BME280;15940;48.734;9.112;2022-09-09T03:09:20;96251.53;;;14.82;69.40
9525;BME280;15940;48.734;9.112;2022-09-09T03:11:47;96250.06;;;14.81;69.66
9525;BME280;15940;48.734;9.112;2022-09-09T03:14:15;96253.72;;;14.84;69.23
9525;BME280;15940;48.734;9.112;2022-09-09T03:16:43;96247.75;;;14.85;69.96
9525;BME280;15940;48.734;9.112;2022-09-09T03:19:11;96251.72;;;14.84;69.33
9525;BME280;15940;48.734;9.112;2022-09-09T03:21:39;96256.78;;;14.80;69.77
9525;BME280;15940;48.734;9.112;2022-09-09T03:24:06;96246.47;;;14.86;69.04
9525;BME280;15940;48.734;9.112;2022-09-09T03:26:33;96250.59;;;14.93;69.09
9525;BME280;15940;48.734;9.112;2022-09-09T03:29:00;96251.31;;;14.94;69.20
9525;BME280;15940;48.734;9.112;2022-09-09T03:31:27;96248.81;;;14.96;69.19
9525;BME280;15940;48.734;9.112;2022-09-09T03:33:57;96251.84;;;14.92;68.89
9525;BME280;15940;48.734;9.112;2022-09-09T03:36:24;96242.41;;;14.93;69.11
9525;BME280;15940;48.734;9.112;2022-09-09T03:38:53;96250.06;;;14.95;68.37
9525;BME280;15940;48.734;9.112;2022-09-09T03:41:21;96245.25;;;15.01;69.08
9525;BME280;15940;48.734;9.112;2022-09-09T03:43:49;96250.38;;;15.04;68.52
9525;BME280;15940;48.734;9.112;2022-09-09T03:46:16;96255.03;;;15.09;68.15
9525;BME280;15940;48.734;9.112;2022-09-09T03:48:43;96258.38;;;15.15;68.37
9525;BME280;15940;48.734;9.112;2022-09-09T03:51:12;96258.91;;;15.14;68.33
9525;BME280;15940;48.734;9.112;2022-09-09T03:53:39;96247.25;;;15.13;68.66
9525;BME280;15940;48.734;9.112;2022-09-09T03:56:06;96250.41;;;15.18;68.59
9525;BME280;15940;48.734;9.112;2022-09-09T03:58:34;96250.19;;;15.15;68.03
9525;BME280;15940;48.734;9.112;2022-09-09T04:01:04;96248.94;;;15.17;68.45
9525;BME280;15940;48.734;9.112;2022-09-09T04:03:32;96257.53;;;15.07;68.66
9525;BME280;15940;48.734;9.112;2022-09-09T04:06:02;96257.44;;;15.13;68.72
9525;BME280;15940;48.734;9.112;2022-09-09T04:08:31;96264.34;;;15.14;68.46
9525;BME280;15940;48.734;9.112;2022-09-09T04:10:58;96259.75;;;15.09;68.36
9525;BME280;15940;48.734;9.112;2022-09-09T04:13:27;96262.16;;;14.99;68.79
9525;BME280;15940;48.734;9.112;2022-09-09T04:15:56;96251.31;;;14.94;69.00
9525;BME280;15940;48.734;9.112;2022-09-09T04:18:24;96262.75;;;14.79;69.73
9525;BME280;15940;48.734;9.112;2022-09-09T04:20:52;96259.69;;;14.69;69.31
9525;BME280;15940;48.734;9.112;2022-09-09T04:23:20;96269.34;;;14.70;70.49
9525;BME280;15940;48.734;9.112;2022-09-09T04:25:50;96269.09;;;14.68;70.24
9525;BME280;15940;48.734;9.112;2022-09-09T04:28:20;96270.88;;;14.66;69.93
9525;BME280;15940;48.734;9.112;2022-09-09T04:30:47;96268.13;;;14.52;70.05
9525;BME280;15940;48.734;9.112;2022-09-09T04:33:15;96271.22;;;14.43;70.45
9525;BME280;15940;48.734;9.112;2022-09-09T04:35:45;96263.56;;;14.42;70.68
9525;BME280;15940;48.734;9.112;2022-09-09T04:38:12;96270.88;;;14.34;70.90
9525;BME280;15940;48.734;9.112;2022-09-09T04:40:42;96260.09;;;14.41;72.16
9525;BME280;15940;48.734;9.112;2022-09-09T04:43:11;96260.56;;;14.45;71.68
9525;BME280;15940;48.734;9.112;2022-09-09T04:45:40;96267.75;;;14.43;71.61
9525;BME280;15940;48.734;9.112;2022-09-09T04:48:07;96269.09;;;14.36;72.36
9525;BME280;15940;48.734;9.112;2022-09-09T04:50:33;96277.78;;;14.35;72.72
9525;BME280;15940;48.734;9.112;2022-09-09T04:53:01;96275.38;;;14.31;72.20
9525;BME280;15940;48.734;9.112;2022-09-09T04:55:29;96276.59;;;14.30;72.92
9525;BME280;15940;48.734;9.112;2022-09-09T04:57:56;96278.69;;;14.24;72.40
9525;BME280;15940;48.734;9.112;2022-09-09T05:00:25;96271.63;;;14.15;72.80
9525;BME280;15940;48.734;9.112;2022-09-09T05:02:51;96285.63;;;14.06;72.96
9525;BME280;15940;48.734;9.112;2022-09-09T05:05:18;96287.09;;;14.07;73.48
9525;BME280;15940;48.734;9.112;2022-09-09T05:07:45;96297.66;;;14.11;73.75
9525;BME280;15940;48.734;9.112;2022-09-09T05:10:13;96292.09;;;14.22;73.30
9525;BME280;15940;48.734;9.112;2022-09-09T05:12:42;96289.38;;;14.22;72.36
9525;BME280;15940;48.734;9.112;2022-09-09T05:15:09;96278.97;;;14.20;72.84
9525;BME280;15940;48.734;9.112;2022-09-09T05:17:38;96299.00;;;14.23;72.44
9525;BME280;15940;48.734;9.112;2022-09-09T05:20:06;96290.31;;;14.24;73.05
9525;BME280;15940;48.734;9.112;2022-09-09T05:22:33;96283.75;;;14.33;72.88
9525;BME280;15940;48.734;9.112;2022-09-09T05:25:00;96287.28;;;14.47;72.44
9525;BME280;15940;48.734;9.112;2022-09-09T05:27:27;96277.56;;;14.51;72.16
9525;BME280;15940;48.734;9.112;2022-09-09T05:29:57;96284.16;;;14.56;72.18
9525;BME280;15940;48.734;9.112;2022-09-09T05:32:24;96284.44;;;14.71;71.82
9525;BME280;15940;48.734;9.112;2022-09-09T05:34:52;96283.06;;;14.78;71.44
9525;BME280;15940;48.734;9.112;2022-09-09T05:37:19;96287.50;;;14.94;70.83
9525;BME280;15940;48.734;9.112;2022-09-09T05:39:46;96292.56;;;15.03;69.78
9525;BME280;15940;48.734;9.112;2022-09-09T05:42:13;96289.75;;;15.09;70.29
9525;BME280;15940;48.734;9.112;2022-09-09T05:44:40;96300.78;;;15.17;70.06
9525;BME280;15940;48.734;9.112;2022-09-09T05:47:08;96305.38;;;15.22;69.86
9525;BME280;15940;48.734;9.112;2022-09-09T05:49:35;96300.66;;;15.22;69.68
9525;BME280;15940;48.734;9.112;2022-09-09T05:52:03;96302.88;;;15.24;69.95
9525;BME280;15940;48.734;9.112;2022-09-09T05:54:30;96306.34;;;15.24;69.87
9525;BME280;15940;48.734;9.112;2022-09-09T05:56:58;96308.03;;;15.27;69.77
9525;BME280;15940;48.734;9.112;2022-09-09T05:59:25;96310.44;;;15.31;69.54
9525;BME280;15940;48.734;9.112;2022-09-09T06:01:52;96308.66;;;15.33;69.48
9525;BME280;15940;48.734;9.112;2022-09-09T06:04:19;96307.38;;;15.34;69.50
9525;BME280;15940;48.734;9.112;2022-09-09T06:06:50;96311.06;;;15.37;69.44
9525;BME280;15940;48.734;9.112;2022-09-09T06:09:18;96304.34;;;15.38;69.67
9525;BME280;15940;48.734;9.112;2022-09-09T06:11:45;96303.22;;;15.47;69.04
9525;BME280;15940;48.734;9.112;2022-09-09T06:14:12;96298.56;;;15.41;69.66
9525;BME280;15940;48.734;9.112;2022-09-09T06:16:40;96316.84;;;15.47;69.36
9525;BME280;15940;48.734;9.112;2022-09-09T06:19:09;96302.25;;;15.44;69.62
9525;BME280;15940;48.734;9.112;2022-09-09T06:21:38;96309.81;;;15.51;69.28
9525;BME280;15940;48.734;9.112;2022-09-09T06:24:06;96304.06;;;15.55;69.91
9525;BME280;15940;48.734;9.112;2022-09-09T06:26:37;96305.19;;;15.59;69.89
9525;BME280;15940;48.734;9.112;2022-09-09T06:29:06;96306.25;;;15.69;69.34
9525;BME280;15940;48.734;9.112;2022-09-09T06:31:35;96313.50;;;15.67;69.64
9525;BME280;15940;48.734;9.112;2022-09-09T06:34:05;96306.25;;;15.69;69.39
9525;BME280;15940;48.734;9.112;2022-09-09T06:36:34;96312.88;;;15.74;69.68
9525;BME280;15940;48.734;9.112;2022-09-09T06:39:03;96311.94;;;15.85;68.99
9525;BME280;15940;48.734;9.112;2022-09-09T06:41:33;96310.31;;;15.89;68.93
9525;BME280;15940;48.734;9.112;2022-09-09T06:44:01;96307.59;;;15.89;68.84
9525;BME280;15940;48.734;9.112;2022-09-09T06:46:30;96303.84;;;15.92;68.99
9525;BME280;15940;48.734;9.112;2022-09-09T06:48:59;96306.22;;;15.96;68.99
9525;BME280;15940;48.734;9.112;2022-09-09T06:51:28;96305.50;;;15.95;68.45
9525;BME280;15940;48.734;9.112;2022-09-09T06:53:57;96307.78;;;15.91;68.71
9525;BME280;15940;48.734;9.112;2022-09-09T06:56:26;96308.22;;;15.95;69.35
9525;BME280;15940;48.734;9.112;2022-09-09T06:58:56;96313.66;;;16.09;69.35
9525;BME280;15940;48.734;9.112;2022-09-09T07:01:27;96314.56;;;16.24;68.42
9525;BME280;15940;48.734;9.112;2022-09-09T07:03:56;96311.78;;;16.38;68.27
9525;BME280;15940;48.734;9.112;2022-09-09T07:06:26;96308.00;;;16.41;67.81
9525;BME280;15940;48.734;9.112;2022-09-09T07:08:55;96314.59;;;16.45;67.64
9525;BME280;15940;48.734;9.112;2022-09-09T07:11:26;96315.88;;;16.44;67.75
9525;BME280;15940;48.734;9.112;2022-09-09T07:13:53;96313.03;;;16.50;68.42
9525;BME280;15940;48.734;9.112;2022-09-09T07:16:22;96311.28;;;16.60;67.82
9525;BME280;15940;48.734;9.112;2022-09-09T07:18:52;96312.63;;;16.67;67.30
9525;BME280;15940;48.734;9.112;2022-09-09T07:21:24;96319.34;;;16.79;67.40
9525;BME280;15940;48.734;9.112;2022-09-09T07:23:52;96316.31;;;16.90;66.41
9525;BME280;15940;48.734;9.112;2022-09-09T07:26:22;96310.69;;;16.96;66.45
9525;BME280;15940;48.734;9.112;2022-09-09T07:28:49;96311.72;;;16.85;67.24
9525;BME280;15940;48.734;9.112;2022-09-09T07:31:20;96313.72;;;16.84;67.02
9525;BME280;15940;48.734;9.112;2022-09-09T07:33:48;96309.19;;;16.87;67.93
9525;BME280;15940;48.734;9.112;2022-09-09T07:36:19;96313.97;;;17.15;66.67
9525;BME280;15940;48.734;9.112;2022-09-09T07:38:49;96305.41;;;17.47;65.55
9525;BME280;15940;48.734;9.112;2022-09-09T07:41:20;96301.75;;;17.73;65.04
9525;BME280;15940;48.734;9.112;2022-09-09T07:43:49;96313.78;;;17.70;64.88
9525;BME280;15940;48.734;9.112;2022-09-09T07:46:18;96318.88;;;18.02;65.21
9525;BME280;15940;48.734;9.112;2022-09-09T07:48:47;96320.88;;;18.09;63.93
9525;BME280;15940;48.734;9.112;2022-09-09T07:51:21;96314.34;;;18.12;63.16
9525;BME280;15940;48.734;9.112;2022-09-09T07:53:51;96321.38;;;18.44;62.47
9525;BME280;15940;48.734;9.112;2022-09-09T07:56:19;96321.81;;;18.71;61.62
9525;BME280;15940;48.734;9.112;2022-09-09T07:58:48;96329.34;;;19.08;60.28
9525;BME280;15940;48.734;9.112;2022-09-09T08:01:19;96334.09;;;19.38;59.27
9525;BME280;15940;48.734;9.112;2022-09-09T08:03:51;96330.44;;;19.36;59.36
9525;BME280;15940;48.734;9.112;2022-09-09T08:06:20;96335.53;;;19.70;58.83
9525;BME280;15940;48.734;9.112;2022-09-09T08:08:50;96334.38;;;19.88;58.33
9525;BME280;15940;48.734;9.112;2022-09-09T08:11:18;96323.91;;;20.02;58.51
9525;BME280;15940;48.734;9.112;2022-09-09T08:13:45;96323.88;;;20.42;57.07
9525;BME280;15940;48.734;9.112;2022-09-09T08:16:16;96327.72;;;20.79;56.08
9525;BME280;15940;48.734;9.112;2022-09-09T08:18:43;96326.09;;;21.01;55.74
9525;BME280;15940;48.734;9.112;2022-09-09T08:21:13;96333.41;;;21.31;54.49
9525;BME280;15940;48.734;9.112;2022-09-09T08:23:45;96344.63;;;21.68;52.83
9525;BME280;15940;48.734;9.112;2022-09-09T08:26:14;96353.88;;;21.63;52.75
9525;BME280;15940;48.734;9.112;2022-09-09T08:28:43;96356.88;;;21.57;53.09
9525;BME280;15940;48.734;9.112;2022-09-09T08:31:12;96349.97;;;21.49;53.62
9525;BME280;15940;48.734;9.112;2022-09-09T08:33:40;96355.81;;;21.53;53.57
9525;BME280;15940;48.734;9.112;2022-09-09T08:36:10;96347.50;;;21.60;53.19
9525;BME280;15940;48.734;9.112;2022-09-09T08:38:37;96345.75;;;21.48;54.17
9525;BME280;15940;48.734;9.112;2022-09-09T08:41:27;96344.75;;;21.35;52.21
9525;BME280;15940;48.734;9.112;2022-09-09T08:44:05;96349.97;;;21.49;52.27
9525;BME280;15940;48.734;9.112;2022-09-09T08:46:42;96357.75;;;21.43;53.47
9525;BME280;15940;48.734;9.112;2022-09-09T08:49:34;96348.22;;;21.61;51.94
9525;BME280;15940;48.734;9.112;2022-09-09T08:52:11;96347.53;;;21.35;52.35
9525;BME280;15940;48.734;9.112;2022-09-09T08:54:42;96348.84;;;21.69;52.79
9525;BME280;15940;48.734;9.112;2022-09-09T08:57:17;96349.19;;;21.73;51.21
9525;BME280;15940;48.734;9.112;2022-09-09T08:59:46;96353.97;;;21.55;51.49
9525;BME280;15940;48.734;9.112;2022-09-09T09:02:18;96352.53;;;21.29;52.42
9525;BME280;15940;48.734;9.112;2022-09-09T09:05:02;96345.13;;;20.82;52.48
9525;BME280;15940;48.734;9.112;2022-09-09T09:07:44;96343.84;;;20.58;54.11
9525;BME280;15940;48.734;9.112;2022-09-09T09:10:29;96349.84;;;20.24;55.64
9525;BME280;15940;48.734;9.112;2022-09-09T09:13:03;96365.50;;;19.98;57.61
9525;BME280;15940;48.734;9.112;2022-09-09T09:15:35;96371.25;;;19.47;59.57
9525;BME280;15940;48.734;9.112;2022-09-09T09:18:04;96371.44;;;19.03;62.96
9525;BME280;15940;48.734;9.112;2022-09-09T09:20:37;96373.69;;;18.53;64.63
9525;BME280;15940;48.734;9.112;2022-09-09T09:23:14;96373.00;;;17.81;64.37
9525;BME280;15940;48.734;9.112;2022-09-09T09:25:46;96376.00;;;17.41;65.54
9525;BME280;15940;48.734;9.112;2022-09-09T09:28:17;96372.03;;;17.00;67.55
9525;BME280;15940;48.734;9.112;2022-09-09T09:30:52;96376.34;;;16.75;69.46
9525;BME280;15940;48.734;9.112;2022-09-09T09:33:23;96366.16;;;16.75;67.89
9525;BME280;15940;48.734;9.112;2022-09-09T09:35:53;96360.81;;;17.61;69.33
9525;BME280;15940;48.734;9.112;2022-09-09T09:38:23;96356.28;;;18.43;65.85
9525;BME280;15940;48.734;9.112;2022-09-09T09:40:52;96355.91;;;19.06;63.37
9525;BME280;15940;48.734;9.112;2022-09-09T09:43:25;96351.28;;;19.69;62.52
9525;BME280;15940;48.734;9.112;2022-09-09T09:45:53;96344.22;;;20.07;60.95
9525;BME280;15940;48.734;9.112;2022-09-09T09:48:21;96340.84;;;20.23;59.19
9525;BME280;15940;48.734;9.112;2022-09-09T09:50:51;96331.53;;;20.59;57.91
9525;BME280;15940;48.734;9.112;2022-09-09T09:53:23;96332.47;;;20.87;56.82
9525;BME280;15940;48.734;9.112;2022-09-09T09:55:56;96327.03;;;21.21;57.37
9525;BME280;15940;48.734;9.112;2022-09-09T09:58:27;96326.91;;;21.61;55.95
9525;BME280;15940;48.734;9.112;2022-09-09T10:00:58;96323.66;;;21.90;56.45
9525;BME280;15940;48.734;9.112;2022-09-09T10:03:28;96322.44;;;22.18;53.87
9525;BME280;15940;48.734;9.112;2022-09-09T10:05:56;96315.75;;;22.21;52.69
9525;BME280;15940;48.734;9.112;2022-09-09T10:08:24;96310.25;;;22.21;54.89
9525;BME280;15940;48.734;9.112;2022-09-09T10:11:02;96311.88;;;22.51;52.06
9525;BME280;15940;48.734;9.112;2022-09-09T10:13:44;96312.28;;;22.47;51.09
9525;BME280;15940;48.734;9.112;2022-09-09T10:16:28;96317.19;;;22.39;54.04
9525;BME280;15940;48.734;9.112;2022-09-09T10:19:00;96312.72;;;22.80;53.49
9525;BME280;15940;48.734;9.112;2022-09-09T10:22:02;96308.03;;;23.00;49.99
9525;BME280;15940;48.734;9.112;2022-09-09T10:25:13;96314.34;;;23.30;49.39
9525;BME280;15940;48.734;9.112;2022-09-09T10:27:58;96309.44;;;23.38;51.10
9525;BME280;15940;48.734;9.112;2022-09-09T10:30:43;96301.88;;;23.38;51.48
9525;BME280;15940;48.734;9.112;2022-09-09T10:33:21;96301.81;;;23.09;51.50
9525;BME280;15940;48.734;9.112;2022-09-09T10:36:02;96303.13;;;23.18;51.15
9525;BME280;15940;48.734;9.112;2022-09-09T10:38:40;96303.69;;;22.43;52.89
9525;BME280;15940;48.734;9.112;2022-09-09T10:41:18;96311.00;;;21.52;54.49
9525;BME280;15940;48.734;9.112;2022-09-09T10:44:18;96309.41;;;20.99;57.12
9525;BME280;15940;48.734;9.112;2022-09-09T10:47:10;96312.38;;;20.94;57.23
9525;BME280;15940;48.734;9.112;2022-09-09T10:50:05;96306.34;;;20.95;57.80
9525;BME280;15940;48.734;9.112;2022-09-09T10:52:39;96300.63;;;21.60;56.12
9525;BME280;15940;48.734;9.112;2022-09-09T10:55:14;96300.13;;;21.89;54.84
9525;BME280;15940;48.734;9.112;2022-09-09T10:57:47;96301.03;;;21.91;53.83
9525;BME280;15940;48.734;9.112;2022-09-09T11:00:18;96296.72;;;21.81;54.76
9525;BME280;15940;48.734;9.112;2022-09-09T11:02:51;96304.91;;;21.54;51.70
9525;BME280;15940;48.734;9.112;2022-09-09T11:05:22;96295.19;;;21.53;51.95
9525;BME280;15940;48.734;9.112;2022-09-09T11:07:55;96299.31;;;21.44;53.20
9525;BME280;15940;48.734;9.112;2022-09-09T11:10:29;96303.03;;;21.39;53.27
9525;BME280;15940;48.734;9.112;2022-09-09T11:13:04;96292.09;;;21.49;50.90
9525;BME280;15940;48.734;9.112;2022-09-09T11:15:39;96297.19;;;21.35;51.30
9525;BME280;15940;48.734;9.112;2022-09-09T11:18:13;96311.31;;;21.14;49.98
9525;BME280;15940;48.734;9.112;2022-09-09T11:20:44;96316.53;;;21.02;50.84
9525;BME280;15940;48.734;9.112;2022-09-09T11:23:15;96327.44;;;20.68;50.40
9525;BME280;15940;48.734;9.112;2022-09-09T11:25:49;96334.94;;;20.35;50.02
9525;BME280;15940;48.734;9.112;2022-09-09T11:28:37;96334.66;;;20.08;51.16
9525;BME280;15940;48.734;9.112;2022-09-09T11:31:27;96338.97;;;19.78;51.25
9525;BME280;15940;48.734;9.112;2022-09-09T11:34:16;96349.25;;;19.78;52.89
9525;BME280;15940;48.734;9.112;2022-09-09T11:37:10;96339.91;;;19.81;53.73
9525;BME280;15940;48.734;9.112;2022-09-09T11:40:08;96348.53;;;19.54;53.87
9525;BME280;15940;48.734;9.112;2022-09-09T11:42:41;96343.06;;;19.31;52.97
9525;BME280;15940;48.734;9.112;2022-09-09T11:45:15;96343.63;;;19.22;54.58
9525;BME280;15940;48.734;9.112;2022-09-09T11:47:53;96333.56;;;19.09;55.25
9525;BME280;15940;48.734;9.112;2022-09-09T11:50:32;96328.25;;;19.04;54.71
9525;BME280;15940;48.734;9.112;2022-09-09T11:53:16;96319.44;;;19.21;55.38
9525;BME280;15940;48.734;9.112;2022-09-09T11:55:47;96320.53;;;19.40;53.90
9525;BME280;15940;48.734;9.112;2022-09-09T11:58:17;96318.34;;;19.62;55.01
9525;BME280;15940;48.734;9.112;2022-09-09T12:00:48;96318.09;;;19.83;54.22
9525;BME280;15940;48.734;9.112;2022-09-09T12:03:42;96321.16;;;19.94;52.74
9525;BME280;15940;48.734;9.112;2022-09-09T12:06:18;96315.66;;;20.02;54.05
9525;BME280;15940;48.734;9.112;2022-09-09T12:08:50;96317.00;;;20.26;52.71
9525;BME280;15940;48.734;9.112;2022-09-09T12:11:25;96320.41;;;20.42;51.79
9525;BME280;15940;48.734;9.112;2022-09-09T12:13:56;96320.75;;;20.78;50.30
9525;BME280;15940;48.734;9.112;2022-09-09T12:16:32;96319.69;;;21.24;51.79
9525;BME280;15940;48.734;9.112;2022-09-09T12:19:05;96315.69;;;21.59;49.02
9525;BME280;15940;48.734;9.112;2022-09-09T12:21:44;96315.31;;;21.80;47.73
9525;BME280;15940;48.734;9.112;2022-09-09T12:24:17;96316.41;;;21.94;47.24
9525;BME280;15940;48.734;9.112;2022-09-09T12:26:52;96312.44;;;22.05;46.17
9525;BME280;15940;48.734;9.112;2022-09-09T12:29:29;96316.59;;;22.41;45.92
9525;BME280;15940;48.734;9.112;2022-09-09T12:32:05;96305.28;;;22.37;45.07
9525;BME280;15940;48.734;9.112;2022-09-09T12:34:39;96302.47;;;22.10;43.61
9525;BME280;15940;48.734;9.112;2022-09-09T12:37:28;96311.25;;;21.81;46.68
9525;BME280;15940;48.734;9.112;2022-09-09T12:39:58;96302.97;;;21.64;47.45
9525;BME280;15940;48.734;9.112;2022-09-09T12:42:26;96306.81;;;21.01;48.20
9525;BME280;15940;48.734;9.112;2022-09-09T12:44:56;96305.72;;;20.79;49.15
9525;BME280;15940;48.734;9.112;2022-09-09T12:47:30;96315.78;;;20.52;51.10
9525;BME280;15940;48.734;9.112;2022-09-09T12:50:00;96297.44;;;20.54;51.16
9525;BME280;15940;48.734;9.112;2022-09-09T12:52:32;96295.47;;;20.47;51.46
9525;BME280;15940;48.734;9.112;2022-09-09T12:55:03;96292.41;;;20.68;50.75
9525;BME280;15940;48.734;9.112;2022-09-09T12:57:35;96288.53;;;20.96;49.46
9525;BME280;15940;48.734;9.112;2022-09-09T13:00:12;96289.66;;;21.10;50.57
9525;BME280;15940;48.734;9.112;2022-09-09T13:02:50;96298.09;;;21.13;49.39
9525;BME280;15940;48.734;9.112;2022-09-09T13:05:21;96280.09;;;20.94;48.74
9525;BME280;15940;48.734;9.112;2022-09-09T13:07:50;96287.91;;;21.05;49.46
9525;BME280;15940;48.734;9.112;2022-09-09T13:10:26;96277.66;;;20.98;48.66
9525;BME280;15940;48.734;9.112;2022-09-09T13:12:54;96273.78;;;21.26;49.20
9525;BME280;15940;48.734;9.112;2022-09-09T13:15:26;96277.16;;;21.86;49.46
9525;BME280;15940;48.734;9.112;2022-09-09T13:17:57;96270.59;;;21.99;47.05
9525;BME280;15940;48.734;9.112;2022-09-09T13:20:27;96265.69;;;22.24;46.96
9525;BME280;15940;48.734;9.112;2022-09-09T13:22:56;96265.16;;;22.36;45.19
9525;BME280;15940;48.734;9.112;2022-09-09T13:25:26;96267.94;;;22.09;44.58
9525;BME280;15940;48.734;9.112;2022-09-09T13:27:57;96271.66;;;21.86;44.88
9525;BME280;15940;48.734;9.112;2022-09-09T13:30:27;96273.69;;;21.86;44.41
9525;BME280;15940;48.734;9.112;2022-09-09T13:33:17;96266.84;;;22.04;45.11
9525;BME280;15940;48.734;9.112;2022-09-09T13:35:48;96262.28;;;22.16;43.66
9525;BME280;15940;48.734;9.112;2022-09-09T13:38:17;96257.06;;;21.59;44.72